Time;durP1;ratioP1;P1;durP2;ratioP2;P2;SDS_P1;SDS_P2;PMS_P1;PMS_P2;Temp;Humidity;BMP_temperature;BMP_pressure;BME280_temperature;BME280_humidity;BME280_pressure;Samples;Min_cycle;Max_cycle;Signal;HPM_P1;HPM_P2
2021/05/05 00:00:12;;;;;;;8.40;2.10;;;7.40;93.70;;;;;;6213464;23;20005;-66
2021/05/05 00:02:39;;;;;;;17.67;7.03;;;7.40;93.80;;;;;;6214165;23;20047;-66
2021/05/05 00:05:05;;;;;;;3.38;2.03;;;7.40;93.70;;;;;;6214973;23;20001;-66
2021/05/05 00:07:31;;;;;;;6.82;2.22;;;7.50;93.60;;;;;;6215289;23;20004;-66
2021/05/05 00:09:57;;;;;;;4.80;3.13;;;7.60;93.50;;;;;;6214095;23;20003;-66
2021/05/05 00:12:22;;;;;;;6.82;2.00;;;7.70;93.30;;;;;;6213589;23;20333;-66
2021/05/05 00:14:48;;;;;;;6.03;1.85;;;7.70;93.10;;;;;;6214550;23;20456;-65
2021/05/05 00:17:13;;;;;;;3.15;1.70;;;7.80;93.00;;;;;;6212294;23;20035;-65
2021/05/05 00:19:39;;;;;;;4.68;1.50;;;7.80;92.90;;;;;;6215083;23;20014;-66
2021/05/05 00:22:06;;;;;;;4.88;1.70;;;7.80;92.70;;;;;;6215282;23;20035;-65
2021/05/05 00:24:32;;;;;;;7.45;2.50;;;7.80;92.70;;;;;;6213995;23;20001;-65
2021/05/05 00:26:57;;;;;;;11.25;7.30;;;7.90;92.60;;;;;;6215493;23;20012;-65
2021/05/05 00:29:23;;;;;;;9.13;3.97;;;7.80;92.50;;;;;;6213489;23;20004;-65
2021/05/05 00:31:48;;;;;;;5.40;2.67;;;7.80;92.60;;;;;;6213609;23;20050;-65
2021/05/05 00:34:14;;;;;;;10.90;4.25;;;7.70;92.70;;;;;;6214508;23;20016;-66
2021/05/05 00:36:39;;;;;;;18.25;12.63;;;7.70;92.80;;;;;;6214618;23;20004;-66
2021/05/05 00:39:05;;;;;;;4.90;1.70;;;7.70;92.80;;;;;;6213851;23;20071;-66
2021/05/05 00:41:31;;;;;;;11.75;2.05;;;7.60;92.70;;;;;;6214827;23;20032;-66
2021/05/05 00:43:57;;;;;;;5.68;2.70;;;7.60;92.80;;;;;;6214421;23;20004;-66
2021/05/05 00:46:22;;;;;;;12.02;4.05;;;7.60;92.80;;;;;;6214359;23;20024;-65
2021/05/05 00:48:48;;;;;;;7.53;1.92;;;7.70;92.80;;;;;;6214673;23;20039;-65
2021/05/05 00:51:14;;;;;;;4.65;1.83;;;7.70;92.70;;;;;;6214510;23;19997;-65
2021/05/05 00:53:40;;;;;;;5.95;1.88;;;7.60;92.70;;;;;;6213613;23;20062;-65
2021/05/05 00:56:07;;;;;;;13.85;3.55;;;7.70;92.80;;;;;;6213651;23;20413;-67
2021/05/05 00:58:35;;;;;;;9.35;2.83;;;7.60;92.80;;;;;;6213469;23;20423;-66
2021/05/05 01:01:01;;;;;;;8.25;3.05;;;7.60;92.80;;;;;;6214071;23;20008;-66
2021/05/05 01:03:26;;;;;;;6.97;2.42;;;7.60;92.80;;;;;;6213984;23;20009;-67
2021/05/05 01:05:52;;;;;;;9.38;2.95;;;7.60;92.80;;;;;;6213364;23;20020;-67
2021/05/05 01:08:20;;;;;;;10.82;2.63;;;7.60;92.90;;;;;;6213665;23;20425;-65
2021/05/05 01:10:49;;;;;;;9.60;3.35;;;7.60;92.90;;;;;;6213406;23;20001;-67
2021/05/05 01:13:15;;;;;;;7.45;2.70;;;7.60;92.80;;;;;;6212941;23;20389;-65
2021/05/05 01:15:42;;;;;;;8.82;5.07;;;7.60;92.80;;;;;;6213367;23;20377;-66
2021/05/05 01:18:08;;;;;;;7.57;2.50;;;7.60;92.70;;;;;;6214059;23;20008;-65
2021/05/05 01:20:33;;;;;;;6.75;2.45;;;7.60;92.60;;;;;;6213559;23;19997;-66
2021/05/05 01:22:59;;;;;;;7.25;2.55;;;7.60;92.60;;;;;;6214422;23;20004;-65
2021/05/05 01:25:25;;;;;;;6.82;2.10;;;7.60;92.60;;;;;;6214654;23;19996;-65
2021/05/05 01:27:51;;;;;;;8.30;2.80;;;7.70;92.50;;;;;;6213422;23;20011;-65
2021/05/05 01:30:19;;;;;;;7.22;2.47;;;7.70;92.50;;;;;;6214269;23;20007;-65
2021/05/05 01:32:45;;;;;;;7.18;2.53;;;7.80;92.50;;;;;;6213771;23;20438;-65
2021/05/05 01:35:12;;;;;;;9.30;4.82;;;7.80;92.40;;;;;;6213405;23;20000;-65
2021/05/05 01:37:41;;;;;;;9.15;2.33;;;7.80;92.60;;;;;;6214162;23;19997;-65
2021/05/05 01:40:10;;;;;;;7.90;2.65;;;7.80;92.40;;;;;;6214337;23;20005;-66
2021/05/05 01:42:36;;;;;;;4.47;2.10;;;7.70;92.50;;;;;;6211980;23;20057;-65
2021/05/05 01:45:03;;;;;;;9.25;2.30;;;7.60;92.50;;;;;;6214167;23;20336;-66
2021/05/05 01:47:28;;;;;;;5.85;2.08;;;7.60;93.10;;;;;;6214922;23;20000;-67
2021/05/05 01:49:54;;;;;;;4.18;1.70;;;7.40;92.70;;;;;;6211729;23;20005;-66
2021/05/05 01:52:19;;;;;;;6.25;1.70;;;7.30;92.90;;;;;;6214408;23;20040;-68
2021/05/05 01:54:45;;;;;;;5.18;2.15;;;7.30;93.20;;;;;;6212399;23;20000;-67
2021/05/05 01:57:32;;;;;;;5.75;1.65;;;7.30;93.50;;;;;;6213432;23;20008;-65
2021/05/05 02:00:04;;;;;;;9.30;2.05;;;7.30;93.50;;;;;;6214332;23;20062;-64
2021/05/05 02:02:31;;;;;;;5.30;2.88;;;7.20;93.30;;;;;;6212120;23;20004;-65
2021/05/05 02:04:57;;;;;;;7.63;2.17;;;7.20;93.40;;;;;;6214199;23;20001;-67
2021/05/05 02:07:23;;;;;;;8.60;1.65;;;7.10;93.60;;;;;;6214603;23;20009;-66
2021/05/05 02:09:49;;;;;;;6.35;2.13;;;7.10;93.60;;;;;;6213202;23;20000;-66
2021/05/05 02:12:16;;;;;;;8.13;1.98;;;7.00;93.50;;;;;;6214126;23;20005;-66
2021/05/05 02:14:43;;;;;;;6.40;1.92;;;7.00;93.50;;;;;;6212393;23;20100;-67
2021/05/05 02:17:09;;;;;;;6.88;1.90;;;7.00;93.60;;;;;;6215290;23;20039;-66
2021/05/05 02:19:34;;;;;;;9.13;2.47;;;6.90;93.70;;;;;;6215833;23;20357;-66
2021/05/05 02:22:00;;;;;;;6.28;1.98;;;6.90;93.80;;;;;;6216303;23;20062;-66
2021/05/05 02:24:25;;;;;;;7.90;1.83;;;6.80;93.80;;;;;;6215121;23;20000;-66
2021/05/05 02:26:51;;;;;;;7.82;2.05;;;6.80;93.90;;;;;;6215816;23;20426;-65
2021/05/05 02:29:16;;;;;;;7.20;2.17;;;6.80;94.00;;;;;;6215828;23;19997;-66
2021/05/05 02:31:42;;;;;;;10.10;5.13;;;6.80;94.10;;;;;;6214969;23;20011;-65
2021/05/05 02:34:08;;;;;;;7.40;2.08;;;6.80;94.10;;;;;;6215704;23;20338;-65
2021/05/05 02:36:34;;;;;;;8.73;1.90;;;6.80;94.10;;;;;;6215840;23;19996;-65
2021/05/05 02:39:03;;;;;;;6.13;1.75;;;6.80;94.20;;;;;;6214917;23;20059;-66
2021/05/05 02:41:29;;;;;;;7.50;1.90;;;6.80;94.20;;;;;;6216123;23;20058;-67
2021/05/05 02:43:54;;;;;;;8.60;2.45;;;6.80;94.30;;;;;;6215759;23;20008;-66
2021/05/05 02:46:20;;;;;;;7.95;2.13;;;6.80;94.30;;;;;;6215240;23;20111;-66
2021/05/05 02:48:46;;;;;;;8.15;2.60;;;6.80;94.30;;;;;;6215658;23;20008;-66
2021/05/05 02:51:11;;;;;;;10.95;2.60;;;6.80;94.40;;;;;;6215141;23;20007;-66
2021/05/05 02:53:37;;;;;;;9.10;2.08;;;6.80;94.40;;;;;;6215702;23;20020;-66
2021/05/05 02:56:03;;;;;;;5.40;2.40;;;6.80;94.40;;;;;;6215843;23;20028;-66
2021/05/05 02:58:29;;;;;;;8.68;2.50;;;6.80;94.40;;;;;;6215364;23;20005;-67
2021/05/05 03:00:55;;;;;;;11.38;2.67;;;6.80;94.40;;;;;;6215380;23;20059;-65
2021/05/05 03:03:20;;;;;;;9.00;2.45;;;6.80;94.70;;;;;;6215881;23;20012;-65
2021/05/05 03:05:46;;;;;;;10.80;2.58;;;6.70;94.60;;;;;;6214638;23;20486;-66
2021/05/05 03:08:13;;;;;;;8.65;2.55;;;6.80;94.80;;;;;;6215718;23;20123;-66
2021/05/05 03:10:39;;;;;;;9.65;2.83;;;6.80;94.80;;;;;;6215443;23;20008;-66
2021/05/05 03:13:04;;;;;;;11.32;2.55;;;6.80;94.90;;;;;;6214669;23;20008;-66
2021/05/05 03:15:30;;;;;;;12.32;2.67;;;6.80;94.90;;;;;;6215424;23;20013;-66
2021/05/05 03:17:56;;;;;;;16.63;9.55;;;6.90;94.90;;;;;;6215579;23;20004;-66
2021/05/05 03:20:21;;;;;;;10.85;2.60;;;6.90;94.90;;;;;;6213266;23;20095;-66
2021/05/05 03:22:47;;;;;;;10.95;2.72;;;6.90;94.90;;;;;;6214182;23;20012;-66
2021/05/05 03:25:12;;;;;;;8.95;2.40;;;6.90;94.90;;;;;;6213817;23;20027;-67
2021/05/05 03:27:38;;;;;;;8.30;3.10;;;6.90;94.80;;;;;;6214330;23;20001;-66
2021/05/05 03:30:06;;;;;;;7.15;2.60;;;6.90;94.80;;;;;;6215391;23;20004;-66
2021/05/05 03:32:31;;;;;;;10.55;2.35;;;7.00;94.80;;;;;;6213547;23;20040;-66
2021/05/05 03:34:57;;;;;;;6.85;2.20;;;7.00;94.90;;;;;;6214597;23;20007;-66
2021/05/05 03:37:22;;;;;;;10.38;2.88;;;7.00;94.80;;;;;;6215748;23;20068;-66
2021/05/05 03:39:48;;;;;;;7.45;2.50;;;7.00;94.80;;;;;;6213494;23;20028;-66
2021/05/05 03:42:13;;;;;;;11.50;4.47;;;7.00;94.90;;;;;;6214533;23;20068;-66
2021/05/05 03:44:39;;;;;;;8.07;3.08;;;7.00;95.20;;;;;;6214912;23;20432;-66
2021/05/05 03:47:05;;;;;;;9.15;3.20;;;7.00;95.00;;;;;;6213710;23;20001;-66
2021/05/05 03:49:30;;;;;;;10.07;4.30;;;6.90;95.10;;;;;;6214498;23;20028;-66
2021/05/05 03:51:56;;;;;;;12.82;3.58;;;6.80;95.10;;;;;;6215215;23;20347;-66
2021/05/05 03:54:22;;;;;;;8.52;3.28;;;6.70;95.20;;;;;;6215134;23;20421;-66
2021/05/05 03:56:47;;;;;;;10.30;3.78;;;6.70;95.60;;;;;;6215184;23;20035;-67
2021/05/05 03:59:13;;;;;;;13.85;4.38;;;6.70;95.40;;;;;;6214954;23;20058;-65
2021/05/05 04:01:39;;;;;;;12.30;4.40;;;6.70;95.40;;;;;;6214152;23;19997;-66
2021/05/05 04:04:05;;;;;;;10.73;4.53;;;6.60;95.50;;;;;;6215305;23;20004;-66
2021/05/05 04:06:30;;;;;;;7.70;3.22;;;6.60;95.50;;;;;;6215565;23;20008;-66
2021/05/05 04:08:56;;;;;;;14.23;3.83;;;6.50;95.50;;;;;;6213044;23;20005;-66
2021/05/05 04:11:21;;;;;;;10.93;5.13;;;6.50;95.60;;;;;;6214686;23;20028;-66
2021/05/05 04:13:47;;;;;;;9.95;3.40;;;6.50;95.70;;;;;;6214120;23;20111;-66
2021/05/05 04:16:13;;;;;;;12.80;3.50;;;6.50;95.70;;;;;;6213249;23;20005;-66
2021/05/05 04:18:38;;;;;;;10.30;4.07;;;6.60;95.70;;;;;;6214100;23;20027;-67
2021/05/05 04:21:07;;;;;;;10.70;3.75;;;6.60;95.70;;;;;;6212645;23;20000;-66
2021/05/05 04:23:34;;;;;;;10.73;3.92;;;6.70;95.60;;;;;;6213350;23;20007;-65
2021/05/05 04:26:00;;;;;;;15.07;5.82;;;6.70;95.40;;;;;;6214566;23;20004;-65
2021/05/05 04:28:26;;;;;;;12.27;3.22;;;6.60;95.30;;;;;;6215016;23;20483;-65
2021/05/05 04:30:52;;;;;;;11.13;3.17;;;6.60;95.30;;;;;;6213818;23;20051;-65
2021/05/05 04:33:17;;;;;;;8.05;2.67;;;6.50;95.30;;;;;;6214462;23;20009;-66
2021/05/05 04:35:43;;;;;;;15.18;2.92;;;6.50;95.20;;;;;;6212963;23;20001;-66
2021/05/05 04:38:08;;;;;;;16.08;3.95;;;6.40;95.20;;;;;;6212184;23;20082;-66
2021/05/05 04:40:34;;;;;;;10.45;2.67;;;6.40;95.30;;;;;;6214932;23;19997;-65
2021/05/05 04:43:01;;;;;;;10.30;2.85;;;6.40;95.30;;;;;;6213066;23;20019;-66
2021/05/05 04:45:26;;;;;;;10.57;3.00;;;6.50;95.60;;;;;;6213981;23;20001;-66
2021/05/05 04:47:52;;;;;;;9.38;2.60;;;6.60;95.20;;;;;;6214833;23;20000;-65
2021/05/05 04:50:18;;;;;;;10.65;2.70;;;6.60;95.10;;;;;;6213729;23;20054;-65
2021/05/05 04:52:44;;;;;;;10.25;3.13;;;6.60;95.10;;;;;;6212963;23;20001;-65
2021/05/05 04:55:10;;;;;;;13.68;3.10;;;6.70;95.10;;;;;;6214591;23;20007;-65
2021/05/05 04:57:36;;;;;;;12.02;3.60;;;6.80;95.10;;;;;;6214263;23;20040;-65
2021/05/05 05:00:04;;;;;;;27.45;24.40;;;6.90;95.10;;;;;;6214185;23;19996;-64
2021/05/05 05:02:30;;;;;;;10.05;3.35;;;6.90;95.00;;;;;;6214962;23;20091;-64
2021/05/05 05:04:56;;;;;;;7.65;2.63;;;6.90;95.00;;;;;;6213848;23;19997;-65
2021/05/05 05:07:21;;;;;;;15.48;5.47;;;6.90;95.00;;;;;;6214907;23;20058;-65
2021/05/05 05:09:47;;;;;;;10.57;2.72;;;6.90;94.90;;;;;;6214317;23;20008;-66
2021/05/05 05:12:12;;;;;;;14.45;11.38;;;6.90;94.80;;;;;;6213553;23;20067;-66
2021/05/05 05:14:38;;;;;;;7.28;2.72;;;6.90;94.70;;;;;;6212502;23;20024;-65
2021/05/05 05:17:04;;;;;;;11.18;3.15;;;6.90;94.70;;;;;;6214433;23;20000;-65
2021/05/05 05:19:30;;;;;;;6.47;2.35;;;6.90;94.70;;;;;;6213896;23;20005;-65
2021/05/05 05:21:55;;;;;;;9.48;2.90;;;6.90;94.60;;;;;;6214628;23;19997;-66
2021/05/05 05:24:21;;;;;;;8.52;2.80;;;6.90;94.50;;;;;;6214568;23;20055;-66
2021/05/05 05:26:46;;;;;;;5.65;2.63;;;6.90;94.60;;;;;;6213425;23;20000;-65
2021/05/05 05:29:12;;;;;;;13.57;3.38;;;6.90;94.50;;;;;;6214228;23;20004;-65
2021/05/05 05:31:38;;;;;;;8.73;3.42;;;6.90;94.60;;;;;;6214375;23;20007;-65
2021/05/05 05:34:04;;;;;;;7.20;3.28;;;6.90;94.70;;;;;;6211982;23;20016;-65
2021/05/05 05:36:31;;;;;;;7.97;2.88;;;6.90;94.60;;;;;;6214660;23;20088;-65
2021/05/05 05:38:57;;;;;;;7.50;3.00;;;7.00;94.60;;;;;;6214363;23;20011;-65
2021/05/05 05:41:22;;;;;;;8.43;2.85;;;7.00;94.60;;;;;;6213892;23;20025;-65
2021/05/05 05:43:48;;;;;;;7.68;3.25;;;7.10;94.40;;;;;;6214039;23;20005;-65
2021/05/05 05:46:14;;;;;;;5.78;2.80;;;7.10;94.30;;;;;;6214397;23;20485;-65
2021/05/05 05:48:39;;;;;;;9.63;2.90;;;7.00;94.30;;;;;;6213215;23;20362;-65
2021/05/05 05:51:05;;;;;;;8.18;3.40;;;7.00;94.40;;;;;;6216027;23;19997;-66
2021/05/05 05:53:33;;;;;;;5.72;2.40;;;7.00;94.50;;;;;;6215634;23;20008;-66
2021/05/05 05:55:58;;;;;;;14.15;5.05;;;7.00;94.60;;;;;;6215406;23;20017;-65
2021/05/05 05:58:24;;;;;;;7.90;2.85;;;7.00;94.70;;;;;;6216498;23;20007;-65
2021/05/05 06:00:49;;;;;;;8.40;2.65;;;7.00;94.70;;;;;;6216042;23;20005;-66
2021/05/05 06:03:15;;;;;;;7.38;4.22;;;7.00;94.60;;;;;;6214635;23;20008;-67
2021/05/05 06:05:40;;;;;;;6.38;2.17;;;7.10;94.50;;;;;;6215030;23;20334;-66
2021/05/05 06:08:06;;;;;;;5.60;2.63;;;7.30;94.20;;;;;;6214977;23;20004;-65
2021/05/05 06:10:32;;;;;;;10.05;6.00;;;7.30;93.80;;;;;;6215717;23;20076;-69
2021/05/05 06:12:58;;;;;;;9.68;2.65;;;7.40;93.50;;;;;;6215486;23;20044;-68
2021/05/05 06:15:24;;;;;;;11.65;3.38;;;7.60;93.40;;;;;;6211551;23;20403;-67
2021/05/05 06:17:50;;;;;;;6.53;3.60;;;7.80;93.30;;;;;;6215750;23;20040;-67
2021/05/05 06:20:16;;;;;;;16.98;8.65;;;8.00;92.80;;;;;;6215537;23;19996;-66
2021/05/05 06:22:42;;;;;;;6.75;2.67;;;8.00;92.60;;;;;;6215834;23;20373;-66
2021/05/05 06:25:08;;;;;;;21.45;12.75;;;7.90;92.40;;;;;;6214312;23;20028;-66
2021/05/05 06:27:37;;;;;;;6.78;2.40;;;7.90;92.40;;;;;;6213245;23;20004;-68
2021/05/05 06:30:05;;;;;;;6.93;2.65;;;7.80;92.10;;;;;;6213820;23;20020;-66
2021/05/05 06:32:31;;;;;;;6.13;2.20;;;7.70;92.30;;;;;;6215218;23;20445;-66
2021/05/05 06:34:57;;;;;;;8.00;2.50;;;7.70;92.50;;;;;;6215032;23;20008;-67
2021/05/05 06:37:23;;;;;;;8.45;2.55;;;7.60;92.50;;;;;;6216376;23;20022;-66
2021/05/05 06:39:49;;;;;;;8.40;2.63;;;7.60;92.70;;;;;;6214053;23;20004;-64
2021/05/05 06:42:15;;;;;;;6.93;2.70;;;7.70;92.70;;;;;;6214963;23;20024;-66
2021/05/05 06:44:41;;;;;;;7.28;2.40;;;7.80;92.60;;;;;;6215382;23;20085;-66
2021/05/05 06:47:07;;;;;;;10.60;2.70;;;7.80;92.20;;;;;;6215141;23;20443;-67
2021/05/05 06:49:35;;;;;;;7.93;2.30;;;7.90;92.20;;;;;;6214576;23;20055;-65
2021/05/05 06:52:02;;;;;;;9.43;8.35;;;8.10;92.30;;;;;;6215343;23;19997;-66
2021/05/05 06:54:28;;;;;;;18.90;11.98;;;8.30;92.40;;;;;;6215976;23;20452;-66
2021/05/05 06:56:54;;;;;;;10.10;2.45;;;8.50;92.00;;;;;;6214765;23;20001;-66
2021/05/05 06:59:20;;;;;;;18.33;6.93;;;8.60;91.40;;;;;;6215494;23;20000;-66
2021/05/05 07:01:45;;;;;;;10.93;3.53;;;8.70;91.20;;;;;;6215139;23;20004;-67
2021/05/05 07:04:11;;;;;;;7.45;1.95;;;8.80;90.80;;;;;;6214572;23;20007;-66
2021/05/05 07:06:37;;;;;;;8.57;3.28;;;8.80;90.70;;;;;;6215264;23;20028;-65
2021/05/05 07:09:05;;;;;;;5.82;2.30;;;8.70;90.30;;;;;;6215294;23;20472;-66
2021/05/05 07:11:35;;;;;;;10.38;3.05;;;8.70;90.40;;;;;;6213400;23;20000;-68
2021/05/05 07:14:00;;;;;;;13.88;7.40;;;8.60;90.70;;;;;;6210707;23;20013;-68
2021/05/05 07:16:26;;;;;;;6.15;2.10;;;8.60;90.80;;;;;;6215434;23;20035;-66
2021/05/05 07:18:52;;;;;;;10.90;2.63;;;8.60;90.60;;;;;;6214255;23;20001;-67
2021/05/05 07:21:17;;;;;;;6.72;2.38;;;8.80;91.00;;;;;;6215203;23;20349;-65
2021/05/05 07:23:43;;;;;;;6.50;2.50;;;9.00;90.70;;;;;;6214153;23;20004;-66
2021/05/05 07:26:10;;;;;;;6.68;2.00;;;9.20;90.00;;;;;;6214572;23;20001;-68
2021/05/05 07:28:36;;;;;;;6.50;2.30;;;9.30;89.30;;;;;;6214521;23;20000;-73
2021/05/05 07:31:02;;;;;;;11.02;6.63;;;9.30;89.40;;;;;;6214159;23;20008;-67
2021/05/05 07:33:27;;;;;;;9.20;2.40;;;9.30;89.30;;;;;;6215388;23;20016;-67
2021/05/05 07:35:56;;;;;;;8.10;2.92;;;9.30;89.30;;;;;;6215096;23;20105;-71
2021/05/05 07:44:32;;;;;;;12.05;5.22;;;9.40;89.40;;;;;;6214161;23;20046;-68
2021/05/05 07:46:48;;;;;;;9.02;2.00;;;9.60;88.90;;;;;;6214109;23;20032;-68
2021/05/05 07:49:18;;;;;;;7.38;2.05;;;9.50;87.10;;;;;;6214631;23;20005;-67
2021/05/05 07:51:44;;;;;;;9.02;2.50;;;9.50;87.20;;;;;;6214063;23;19996;-67
2021/05/05 07:54:11;;;;;;;9.40;2.90;;;9.50;87.20;;;;;;6214429;23;20023;-66
2021/05/05 07:56:37;;;;;;;7.15;2.22;;;9.50;86.30;;;;;;6214720;23;20012;-68
2021/05/05 07:59:03;;;;;;;17.20;13.07;;;9.70;86.40;;;;;;6214087;23;20008;-68
2021/05/05 08:01:30;;;;;;;12.73;2.55;;;10.00;85.80;;;;;;6213550;23;20072;-66
2021/05/05 08:03:56;;;;;;;7.18;2.92;;;10.10;85.50;;;;;;6214626;23;20035;-68
2021/05/05 08:06:23;;;;;;;10.20;3.10;;;10.10;84.20;;;;;;6212907;23;20051;-67
2021/05/05 08:08:49;;;;;;;8.70;2.88;;;9.90;84.30;;;;;;6214271;23;20001;-69
2021/05/05 08:11:14;;;;;;;8.93;2.38;;;9.70;84.90;;;;;;6212818;23;20011;-69
2021/05/05 08:13:41;;;;;;;8.15;2.42;;;9.50;86.40;;;;;;6212684;23;20013;-67
2021/05/05 08:16:07;;;;;;;5.60;2.00;;;9.20;87.90;;;;;;6213977;23;20060;-69
2021/05/05 08:18:33;;;;;;;47.20;42.30;;;9.00;88.50;;;;;;6214009;23;20010;-68
2021/05/05 08:21:01;;;;;;;7.80;2.63;;;8.60;89.60;;;;;;6213953;23;20000;-68
2021/05/05 08:23:27;;;;;;;7.35;2.05;;;8.40;90.70;;;;;;6214562;23;20001;-67
2021/05/05 08:25:53;;;;;;;6.03;2.10;;;8.20;91.40;;;;;;6212697;23;20000;-68
2021/05/05 08:28:18;;;;;;;8.23;2.15;;;8.10;91.80;;;;;;6213636;23;20302;-67
2021/05/05 08:30:44;;;;;;;16.83;2.45;;;8.20;92.10;;;;;;6214533;23;20003;-66
2021/05/05 08:33:10;;;;;;;10.80;2.80;;;8.30;92.30;;;;;;6214592;23;20013;-68
2021/05/05 08:35:37;;;;;;;9.82;2.00;;;8.50;92.50;;;;;;6213440;23;20000;-68
2021/05/05 08:38:03;;;;;;;7.20;2.25;;;8.80;92.20;;;;;;6214265;23;20024;-68
2021/05/05 08:40:30;;;;;;;7.00;1.88;;;8.90;92.10;;;;;;6214212;23;20075;-67
2021/05/05 08:42:56;;;;;;;10.63;7.03;;;9.10;91.80;;;;;;6212064;23;20004;-68
2021/05/05 08:45:26;;;;;;;9.93;2.17;;;9.20;91.40;;;;;;6212982;23;20011;-67
2021/05/05 08:47:53;;;;;;;8.82;1.95;;;9.40;91.00;;;;;;6213784;23;20011;-67
2021/05/05 08:50:22;;;;;;;22.02;12.65;;;9.50;90.80;;;;;;6211487;23;20001;-69
2021/05/05 08:52:48;;;;;;;24.33;10.85;;;9.60;90.40;;;;;;6213449;23;20000;-69
2021/05/05 08:55:16;;;;;;;43.42;31.30;;;9.70;90.10;;;;;;6212329;23;20032;-69
2021/05/05 08:57:41;;;;;;;7.25;2.33;;;9.90;89.70;;;;;;6214170;23;20448;-68
2021/05/05 09:00:09;;;;;;;6.53;2.00;;;9.90;88.90;;;;;;6214154;23;20001;-69
2021/05/05 09:02:35;;;;;;;21.42;14.23;;;9.90;88.20;;;;;;6213341;23;20080;-70
2021/05/05 09:05:05;;;;;;;9.57;4.10;;;10.20;87.90;;;;;;6214135;23;20039;-68
2021/05/05 09:07:36;;;;;;;29.02;12.18;;;10.40;85.50;;;;;;6212221;23;20001;-69
2021/05/05 09:10:17;;;;;;;29.05;21.13;;;10.50;84.50;;;;;;6213662;23;20009;-70
2021/05/05 09:12:44;;;;;;;11.50;3.03;;;10.30;83.20;;;;;;6213651;23;20529;-69
2021/05/05 09:15:15;;;;;;;5.75;1.83;;;9.90;86.30;;;;;;6214093;23;20013;-70
2021/05/05 09:17:48;;;;;;;8.98;2.10;;;9.50;87.60;;;;;;6212835;23;20008;-70
2021/05/05 09:20:16;;;;;;;8.38;3.33;;;9.30;89.30;;;;;;6214116;23;20001;-69
2021/05/05 09:22:53;;;;;;;7.28;1.90;;;9.20;90.10;;;;;;6213834;23;20000;-67
2021/05/05 09:25:38;;;;;;;9.88;2.75;;;9.30;90.30;;;;;;6212735;23;20004;-68
2021/05/05 09:28:20;;;;;;;9.00;2.53;;;9.40;90.80;;;;;;6212474;23;20059;-68
2021/05/05 09:30:47;;;;;;;13.70;6.47;;;9.80;90.90;;;;;;6213443;23;20005;-69
2021/05/05 09:33:32;;;;;;;10.32;2.97;;;10.10;89.50;;;;;;6213308;23;20024;-69
2021/05/05 09:36:00;;;;;;;10.45;2.72;;;10.10;88.50;;;;;;6214002;23;20000;-67
2021/05/05 09:38:41;;;;;;;11.20;2.45;;;10.10;88.00;;;;;;6213562;23;20031;-66
2021/05/05 09:41:07;;;;;;;8.68;3.83;;;10.00;88.20;;;;;;6213910;23;20011;-66
2021/05/05 09:43:36;;;;;;;11.32;5.60;;;9.80;87.10;;;;;;6213436;23;20001;-68
2021/05/05 09:46:03;;;;;;;8.80;2.30;;;9.70;87.80;;;;;;6211375;23;20020;-68
2021/05/05 09:48:29;;;;;;;10.98;2.75;;;9.60;88.20;;;;;;6212401;23;20005;-69
2021/05/05 09:50:59;;;;;;;8.32;2.42;;;9.60;88.40;;;;;;6212307;23;20005;-69
2021/05/05 09:53:32;;;;;;;13.23;5.70;;;9.50;87.80;;;;;;6213395;23;20032;-69
2021/05/05 09:55:57;;;;;;;12.27;5.10;;;9.60;88.60;;;;;;6214088;23;20000;-68
2021/05/05 09:58:30;;;;;;;7.65;2.22;;;9.80;87.40;;;;;;6211379;23;20083;-68
2021/05/05 10:01:05;;;;;;;8.85;2.90;;;10.10;86.70;;;;;;6213788;23;20011;-67
2021/05/05 10:03:34;;;;;;;10.68;2.40;;;10.40;85.10;;;;;;6212085;23;20008;-66
2021/05/05 10:06:38;;;;;;;9.45;5.65;;;10.60;84.10;;;;;;6213296;23;19996;-67
2021/05/05 10:09:09;;;;;;;9.52;2.20;;;10.80;82.70;;;;;;6213832;23;20001;-67
2021/05/05 10:11:48;;;;;;;6.90;2.30;;;10.80;81.40;;;;;;6213864;23;20008;-69
2021/05/05 10:14:15;;;;;;;25.88;16.58;;;10.80;80.90;;;;;;6212636;23;20416;-69
2021/05/05 10:16:44;;;;;;;9.98;2.40;;;10.60;81.20;;;;;;6212112;23;20075;-68
2021/05/05 10:19:21;;;;;;;9.25;2.67;;;10.30;81.50;;;;;;6213776;23;20051;-68
2021/05/05 10:21:52;;;;;;;8.02;2.30;;;10.00;83.40;;;;;;6214041;23;20071;-68
2021/05/05 10:24:20;;;;;;;8.80;3.13;;;9.90;84.70;;;;;;6213692;23;20387;-69
2021/05/05 10:26:47;;;;;;;8.18;2.47;;;9.90;85.50;;;;;;6211590;23;20059;-69
2021/05/05 10:29:14;;;;;;;8.35;2.47;;;10.00;84.70;;;;;;6213561;23;20079;-68
2021/05/05 10:31:40;;;;;;;4.43;2.15;;;10.20;84.50;;;;;;6213402;23;20485;-67
2021/05/05 10:34:15;;;;;;;5.75;1.75;;;10.20;83.70;;;;;;6213230;23;20326;-69
2021/05/05 10:36:46;;;;;;;7.90;2.60;;;10.20;84.40;;;;;;6214207;23;20011;-65
2021/05/05 10:39:11;;;;;;;132.67;53.30;;;10.10;84.80;;;;;;6211957;23;20008;-70
2021/05/05 10:41:40;;;;;;;8.70;2.25;;;10.20;84.30;;;;;;6210620;23;20290;-66
2021/05/05 10:44:06;;;;;;;9.40;2.28;;;10.30;83.70;;;;;;6210142;23;20075;-67
2021/05/05 10:46:34;;;;;;;71.63;34.67;;;10.50;84.00;;;;;;6211414;23;20031;-67
2021/05/05 10:49:17;;;;;;;10.68;2.90;;;10.60;83.20;;;;;;6209057;23;20004;-66
2021/05/05 10:51:45;;;;;;;26.55;12.60;;;10.90;81.90;;;;;;6210791;23;20090;-67
2021/05/05 10:54:16;;;;;;;40.63;22.00;;;11.20;80.90;;;;;;6210868;23;20071;-67
2021/05/05 10:56:45;;;;;;;12.95;3.03;;;11.30;80.00;;;;;;6210139;23;20047;-66
2021/05/05 10:59:12;;;;;;;7.97;3.50;;;11.40;78.90;;;;;;6211121;23;20020;-66
2021/05/05 11:01:43;;;;;;;10.95;2.83;;;11.50;79.40;;;;;;6210448;23;20000;-67
2021/05/05 11:04:13;;;;;;;11.50;3.43;;;11.70;78.20;;;;;;6211212;23;20079;-66
2021/05/05 11:06:50;;;;;;;10.15;2.15;;;11.80;77.20;;;;;;6210476;23;20374;-66
2021/05/05 11:09:16;;;;;;;13.48;3.50;;;11.90;77.30;;;;;;6210132;23;20479;-67
2021/05/05 11:11:44;;;;;;;9.85;3.20;;;12.10;77.00;;;;;;6211447;23;20083;-67
2021/05/05 11:14:28;;;;;;;11.48;8.13;;;12.30;77.20;;;;;;6210161;23;20012;-69
2021/05/05 11:22:08;;;;;;;12.57;3.33;;;12.70;73.10;;;;;;6210568;23;20425;-68
2021/05/05 11:24:40;;;;;;;10.75;4.05;;;12.70;72.00;;;;;;6209811;23;20004;-68
2021/05/05 11:27:09;;;;;;;19.42;4.72;;;12.50;72.60;;;;;;6211015;23;20019;-68
2021/05/05 11:29:39;;;;;;;8.90;2.53;;;12.20;74.20;;;;;;6210938;23;20063;-68
2021/05/05 11:32:30;;;;;;;14.18;3.22;;;12.20;74.50;;;;;;6209165;23;20314;-69
2021/05/05 11:34:56;;;;;;;17.20;9.40;;;12.50;74.80;;;;;;6196599;23;20384;-69
2021/05/05 11:37:27;;;;;;;14.07;3.03;;;12.70;72.50;;;;;;6210366;23;20020;-68
2021/05/05 11:40:01;;;;;;;13.43;3.72;;;12.60;71.90;;;;;;6210919;23;20536;-63
2021/05/05 11:42:36;;;;;;;10.48;2.72;;;12.40;70.70;;;;;;6208449;23;20009;-65
2021/05/05 11:45:20;;;;;;;11.52;3.20;;;12.10;71.10;;;;;;6209735;23;19997;-67
2021/05/05 11:47:46;;;;;;;13.25;2.50;;;11.70;73.30;;;;;;6207645;23;20013;-69
2021/05/05 11:50:15;;;;;;;9.65;2.63;;;11.60;75.60;;;;;;6210684;23;20092;-68
2021/05/05 11:52:42;;;;;;;9.88;2.78;;;11.50;76.30;;;;;;6208104;23;20341;-68
2021/05/05 11:55:11;;;;;;;7.70;2.42;;;11.30;76.80;;;;;;6210319;23;20005;-68
2021/05/05 11:57:38;;;;;;;15.23;6.72;;;11.10;77.80;;;;;;6210481;23;20675;-69
2021/05/05 12:00:12;;;;;;;15.57;3.10;;;11.00;77.30;;;;;;6209497;23;20008;-67
2021/05/05 12:02:46;;;;;;;14.43;2.33;;;11.00;77.20;;;;;;6208747;23;20464;-68
2021/05/05 12:05:30;;;;;;;10.55;3.17;;;11.10;77.20;;;;;;6208489;23;20827;-68
2021/05/05 12:08:05;;;;;;;12.77;4.97;;;11.30;76.10;;;;;;6210135;23;20003;-68
2021/05/05 12:10:41;;;;;;;44.70;14.05;;;11.40;75.50;;;;;;6210086;23;20008;-67
2021/05/05 12:13:11;;;;;;;12.60;2.80;;;11.50;71.80;;;;;;6207571;23;20016;-67
2021/05/05 12:15:39;;;;;;;27.65;8.55;;;11.50;71.10;;;;;;6208713;23;20074;-69
2021/05/05 12:18:22;;;;;;;11.13;2.92;;;11.30;72.00;;;;;;6208530;23;20008;-68
2021/05/05 12:20:49;;;;;;;22.90;14.70;;;11.30;74.00;;;;;;6209022;23;20009;-68
2021/05/05 12:23:16;;;;;;;12.15;3.00;;;11.30;73.90;;;;;;6210594;23;20051;-69
2021/05/05 12:25:42;;;;;;;10.85;3.70;;;11.40;73.80;;;;;;6210292;23;20099;-69
2021/05/05 12:28:16;;;;;;;9.63;3.25;;;11.60;74.60;;;;;;6209673;23;20606;-68
2021/05/05 12:30:49;;;;;;;9.05;2.83;;;12.00;73.70;;;;;;6209617;23;20009;-67
2021/05/05 12:33:18;;;;;;;18.17;4.30;;;12.30;72.60;;;;;;6209294;23;20017;-66
2021/05/05 12:35:44;;;;;;;14.82;6.45;;;12.50;70.40;;;;;;6210299;23;20000;-66
2021/05/05 12:38:13;;;;;;;9.55;3.03;;;12.10;71.40;;;;;;6210618;23;20414;-67
2021/05/05 12:40:39;;;;;;;10.70;3.10;;;11.50;75.00;;;;;;6208311;23;20015;-66
2021/05/05 12:43:20;;;;;;;17.33;6.90;;;11.10;79.10;;;;;;6208120;23;20032;-67
2021/05/05 12:45:48;;;;;;;14.52;5.72;;;10.90;79.30;;;;;;6208351;23;20008;-68
2021/05/05 12:48:20;;;;;;;16.15;6.88;;;10.90;78.90;;;;;;6208061;23;20005;-70
2021/05/05 12:50:46;;;;;;;9.45;2.97;;;10.70;77.20;;;;;;6208815;23;20059;-70
2021/05/05 12:53:11;;;;;;;10.27;2.22;;;10.60;76.50;;;;;;6210525;23;20024;-69
2021/05/05 12:55:40;;;;;;;8.25;2.42;;;10.60;74.20;;;;;;6209174;23;19996;-69
2021/05/05 12:58:14;;;;;;;9.88;3.67;;;10.70;72.70;;;;;;6208961;23;20015;-67
2021/05/05 13:00:45;;;;;;;9.98;3.35;;;11.00;70.90;;;;;;6206487;23;20012;-66
2021/05/05 13:03:18;;;;;;;22.80;10.20;;;11.20;68.80;;;;;;6209393;23;20016;-70